Woodland, Wisconsin
Current Conditions -  °F | °C
As of 6:35 AM on Tuesday 27 Jan 2015 (Local Time) from KUNU Reporting Station
Haze Haze  
Wind Chill: 24°   Ceiling: 1100
Heat Index: 24°   Visibility: 3mi
Dew Point: 23°   Wind: 3mph
Humidity: 94%   Direction: 30°NNE
Pressure: 30.08"   Gusts: NA
Location:  43.37°N, 88.52°W
Report Text: KUNU 271235Z AUTO 03003KT 3SM BR OVC011 M04/M05 A3008 RMK AO2 T10431051
Loading
Personal Weather Stations






























Interactive Weather Map New forecast layout! Learn more

10-Day Weather Forecast

Advertisements
Track Severe Weather on mobile